createdAt,value
2023-03-31T00:00:49.162Z,98025.38
2023-03-31T00:02:56.777Z,98018.25
2023-03-31T00:04:59.974Z,98014.69
2023-03-31T00:07:01.594Z,98014.16
2023-03-31T00:09:03.966Z,98015.56
2023-03-31T00:11:07.465Z,98008.69
2023-03-31T00:13:09.290Z,97997.50
2023-03-31T00:15:11.029Z,97985.69
2023-03-31T00:17:15.153Z,97978.56
2023-03-31T00:19:20.584Z,97970.34
2023-03-31T00:21:29.733Z,97958.53
2023-03-31T00:23:31.628Z,97962.13
2023-03-31T00:25:33.274Z,97962.13
2023-03-31T00:27:34.788Z,97957.44
2023-03-31T00:29:36.328Z,97944.03
2023-03-31T00:31:39.082Z,97944.84
2023-03-31T00:33:42.220Z,97946.47
2023-03-31T00:35:46.077Z,97951.13
2023-03-31T00:37:47.552Z,97945.66
2023-03-31T00:39:49.016Z,97942.91
2023-03-31T00:41:50.892Z,97936.59
2023-03-31T00:44:08.551Z,97955.81
2023-03-31T00:46:21.955Z,97941.31
2023-03-31T00:48:24.329Z,97936.91
2023-03-31T00:50:30.645Z,97925.94
2023-03-31T00:52:37.534Z,97931.44
2023-03-31T00:54:43.623Z,97929.78
2023-03-31T00:56:48.902Z,97924.28
2023-03-31T00:58:50.751Z,97925.13
2023-03-31T01:00:53.044Z,97910.06
2023-03-31T01:03:02.197Z,97913.63
2023-03-31T01:05:03.909Z,97915.56
2023-03-31T01:07:18.461Z,97914.72
2023-03-31T01:09:25.105Z,97910.38
2023-03-31T01:11:28.208Z,97905.72
2023-03-31T01:13:32.002Z,97895.84
2023-03-31T01:15:34.532Z,97900.50
2023-03-31T01:17:37.431Z,97896.13
2023-03-31T01:20:14.668Z,97897.22
2023-03-31T01:22:47.345Z,97880.25
2023-03-31T01:25:22.269Z,97866.84
2023-03-31T01:27:54.140Z,97861.66
2023-03-31T01:30:39.870Z,97858.38
2023-03-31T01:32:59.546Z,97855.09
2023-03-31T01:35:31.519Z,97852.34
2023-03-31T01:38:04.117Z,97847.97
2023-03-31T01:40:27.340Z,97850.19
2023-03-31T01:42:44.194Z,97836.75
2023-03-31T01:45:07.331Z,97836.75
2023-03-31T01:47:31.706Z,97834.03
2023-03-31T01:50:05.032Z,97837.66
2023-03-31T01:52:21.457Z,97829.41
2023-03-31T01:54:44.473Z,97831.06
2023-03-31T01:56:59.398Z,97832.16
2023-03-31T01:59:08.934Z,97832.69
2023-03-31T02:01:21.063Z,97821.72
2023-03-31T02:03:29.409Z,97821.72
2023-03-31T02:05:37.700Z,97810.75
2023-03-31T02:08:09.358Z,97814.63
2023-03-31T02:10:13.206Z,97813.50
2023-03-31T02:12:16.741Z,97810.75
2023-03-31T02:14:23.535Z,97804.19
2023-03-31T02:16:27.968Z,97808.00
2023-03-31T02:18:33.403Z,97804.47
2023-03-31T02:20:35.230Z,97802.53
2023-03-31T02:22:39.695Z,97800.63
2023-03-31T02:24:44.340Z,97794.31
2023-03-31T02:27:06.490Z,97796.53
2023-03-31T02:29:11.592Z,97789.94
2023-03-31T02:31:36.451Z,97781.22
2023-03-31T02:33:41.779Z,97779.56
2023-03-31T02:35:43.648Z,97771.34
2023-03-31T02:37:46.468Z,97765.88
2023-03-31T02:39:52.479Z,97758.75
2023-03-31T02:41:54.708Z,97762.31
2023-03-31T02:43:56.668Z,97765.03
2023-03-31T02:46:01.460Z,97746.94
2023-03-31T02:48:12.363Z,97750.81
2023-03-31T02:50:13.941Z,97748.91
2023-03-31T02:52:27.398Z,97740.44
2023-03-31T02:54:57.560Z,97753.31
2023-03-31T02:57:35.291Z,97747.31
2023-03-31T02:59:57.829Z,97746.81
2023-03-31T03:02:11.784Z,97747.31
2023-03-31T03:04:25.838Z,97737.19
2023-03-31T03:06:42.363Z,97737.19
2023-03-31T03:09:03.366Z,97741.84
2023-03-31T03:11:26.232Z,97728.13
2023-03-31T03:13:51.134Z,97728.44
2023-03-31T03:16:06.091Z,97725.16
2023-03-31T03:18:08.195Z,97716.16
2023-03-31T03:20:12.082Z,97711.75
2023-03-31T03:22:13.754Z,97696.97
2023-03-31T03:24:17.096Z,97686.78
2023-03-31T03:26:21.490Z,97686.00
2023-03-31T03:28:23.140Z,97686.00
2023-03-31T03:30:25.033Z,97678.31
2023-03-31T03:32:26.985Z,97681.56
2023-03-31T03:34:28.566Z,97684.00
2023-03-31T03:36:30.294Z,97673.63
2023-03-31T03:38:32.034Z,97665.41
2023-03-31T03:40:33.931Z,97667.03
2023-03-31T03:42:35.671Z,97667.34
2023-03-31T03:44:37.164Z,97665.41
2023-03-31T03:46:38.643Z,97657.19
2023-03-31T03:48:40.429Z,97652.00
2023-03-31T03:50:41.935Z,97642.94
2023-03-31T03:52:43.948Z,97651.72
2023-03-31T03:54:45.735Z,97645.41
2023-03-31T03:56:47.524Z,97646.25
2023-03-31T03:58:49.260Z,97645.09
2023-03-31T04:00:50.827Z,97640.44
2023-03-31T04:02:52.367Z,97636.06
2023-03-31T04:04:54.270Z,97638.81
2023-03-31T04:06:56.050Z,97630.81
2023-03-31T04:08:57.822Z,97638.72
2023-03-31T04:10:59.703Z,97631.06
2023-03-31T04:13:01.355Z,97633.78
2023-03-31T04:15:03.545Z,97627.78
2023-03-31T04:17:05.225Z,97624.50
2023-03-31T04:19:06.849Z,97620.69
2023-03-31T04:21:14.077Z,97621.19
2023-03-31T04:23:15.806Z,97611.03
2023-03-31T04:25:17.491Z,97609.13
2023-03-31T04:27:21.161Z,97606.38
2023-03-31T04:29:26.745Z,97602.59
2023-03-31T04:31:30.805Z,97610.53
2023-03-31T04:33:34.234Z,97593.28
2023-03-31T04:35:58.961Z,97589.72
2023-03-31T04:38:00.433Z,97580.97
2023-03-31T04:40:08.681Z,97583.72
2023-03-31T04:42:10.295Z,97574.16
2023-03-31T04:44:11.768Z,97576.41
2023-03-31T04:46:13.865Z,97568.19
2023-03-31T04:48:15.615Z,97557.22
2023-03-31T04:50:17.338Z,97547.66
2023-03-31T04:52:18.798Z,97554.25
2023-03-31T04:54:20.607Z,97557.28
2023-03-31T04:56:22.832Z,97556.16
2023-03-31T04:58:24.689Z,97551.81
2023-03-31T05:00:26.708Z,97546.63
2023-03-31T05:02:28.411Z,97537.56
2023-03-31T05:04:30.153Z,97547.75
2023-03-31T05:06:32.069Z,97546.41
2023-03-31T05:08:34.065Z,97546.41
2023-03-31T05:10:36.038Z,97533.81
2023-03-31T05:12:38.192Z,97536.25
2023-03-31T05:14:39.829Z,97532.72
2023-03-31T05:16:42.137Z,97528.84
2023-03-31T05:18:44.209Z,97522.25
2023-03-31T05:20:46.450Z,97514.03
2023-03-31T05:22:50.772Z,97510.19
2023-03-31T05:24:52.587Z,97502.25
2023-03-31T05:26:54.633Z,97500.63
2023-03-31T05:28:56.325Z,97493.22
2023-03-31T05:31:01.466Z,97479.84
2023-03-31T05:33:03.170Z,97474.06
2023-03-31T05:35:05.450Z,97468.38
2023-03-31T05:37:07.017Z,97459.03
2023-03-31T05:39:09.285Z,97461.75
2023-03-31T05:41:11.865Z,97464.22
2023-03-31T05:43:16.556Z,97465.00
2023-03-31T05:45:20.423Z,97457.91
2023-03-31T05:47:23.230Z,97448.88
2023-03-31T05:49:29.462Z,97456.78
2023-03-31T05:51:30.976Z,97456.28
2023-03-31T05:53:33.830Z,97459.03
2023-03-31T05:55:38.488Z,97451.63
2023-03-31T05:57:40.094Z,97448.38
2023-03-31T05:59:42.600Z,97444.22
2023-03-31T06:01:44.402Z,97445.84
2023-03-31T06:03:46.620Z,97440.66
2023-03-31T06:05:49.160Z,97442.59
2023-03-31T06:07:50.687Z,97437.41
2023-03-31T06:09:52.580Z,97431.94
2023-03-31T06:11:54.172Z,97429.72
2023-03-31T06:14:03.693Z,97430.81
2023-03-31T06:16:06.420Z,97427.78
2023-03-31T06:18:10.644Z,97424.72
2023-03-31T06:20:24.654Z,97412.97
2023-03-31T06:22:29.509Z,97426.66
2023-03-31T06:24:40.389Z,97423.91
2023-03-31T06:26:42.282Z,97428.59
2023-03-31T06:28:46.107Z,97433.25
2023-03-31T06:30:47.605Z,97440.16
2023-03-31T06:32:49.114Z,97442.91
2023-03-31T06:34:50.731Z,97440.66
2023-03-31T06:36:53.372Z,97444.22
2023-03-31T06:38:54.966Z,97439.56
2023-03-31T06:40:56.392Z,97439.56
2023-03-31T06:42:58.004Z,97435.50
2023-03-31T06:44:59.560Z,97434.38
2023-03-31T06:47:01.111Z,97431.63
2023-03-31T06:49:03.079Z,97436.28
2023-03-31T06:51:07.118Z,97428.38
2023-03-31T06:53:09.588Z,97432.22
2023-03-31T06:55:13.175Z,97438.84
2023-03-31T06:57:14.971Z,97437.19
2023-03-31T06:59:19.805Z,97447.88
2023-03-31T07:01:21.589Z,97441.25
2023-03-31T07:03:25.165Z,97444.00
2023-03-31T07:05:28.645Z,97430.63
2023-03-31T07:07:33.777Z,97433.63
2023-03-31T07:09:38.258Z,97421.06
2023-03-31T07:11:39.786Z,97428.47
2023-03-31T07:13:44.054Z,97431.22
2023-03-31T07:15:50.190Z,97419.16
2023-03-31T07:17:53.987Z,97411.22
2023-03-31T07:19:55.843Z,97416.41
2023-03-31T07:21:57.338Z,97412.03
2023-03-31T07:23:58.916Z,97403.81
2023-03-31T07:26:02.520Z,97395.09
2023-03-31T07:28:06.077Z,97392.63
2023-03-31T07:30:10.778Z,97389.63
2023-03-31T07:32:12.422Z,97381.69
2023-03-31T07:34:14.032Z,97383.31
2023-03-31T07:36:15.978Z,97371.53
2023-03-31T07:38:17.843Z,97368.28
2023-03-31T07:40:23.582Z,97369.41
2023-03-31T07:42:25.161Z,97372.94
2023-03-31T07:44:27.034Z,97358.97
2023-03-31T07:46:29.364Z,97344.16
2023-03-31T07:48:31.363Z,97340.00
2023-03-31T07:50:33.179Z,97342.22
2023-03-31T07:52:36.946Z,97340.00
2023-03-31T07:54:38.389Z,97334.84
2023-03-31T07:56:39.978Z,97338.88
2023-03-31T07:58:41.900Z,97335.84
2023-03-31T08:00:43.484Z,97337.47
2023-03-31T08:02:45.388Z,97329.75
2023-03-31T08:04:47.578Z,97329.44
2023-03-31T08:06:49.041Z,97319.31
2023-03-31T08:08:51.836Z,97315.47
2023-03-31T08:10:53.501Z,97317.06
2023-03-31T08:12:55.799Z,97314.88
2023-03-31T08:14:57.482Z,97305.00
2023-03-31T08:17:00.321Z,97295.38
2023-03-31T08:19:02.131Z,97299.75
2023-03-31T08:21:04.337Z,97293.75
2023-03-31T08:23:09.492Z,97288.25
2023-03-31T08:25:11.376Z,97290.22
2023-03-31T08:27:12.934Z,97293.44
2023-03-31T08:29:15.097Z,97293.75
2023-03-31T08:31:19.663Z,97289.91
2023-03-31T08:33:21.667Z,97293.75
2023-03-31T08:35:23.296Z,97281.69
2023-03-31T08:37:25.117Z,97267.38
2023-03-31T08:39:27.294Z,97237.25
2023-03-31T08:41:53.574Z,97235.91
2023-03-31T08:43:57.102Z,97158.88
2023-03-31T08:46:00.530Z,97164.38
2023-03-31T08:48:22.202Z,97190.16
2023-03-31T08:50:28.450Z,97227.38
2023-03-31T08:52:37.558Z,97220.31
2023-03-31T08:54:49.337Z,97215.91
2023-03-31T08:56:51.930Z,97218.34
2023-03-31T08:58:54.964Z,97204.84
2023-03-31T09:01:16.912Z,97198.78
2023-03-31T09:03:29.172Z,97189.94
2023-03-31T09:05:59.462Z,97187.38
2023-03-31T09:08:15.057Z,97187.59
2023-03-31T09:10:25.505Z,97191.03
2023-03-31T09:12:43.720Z,97185.44
2023-03-31T09:15:04.458Z,97182.13
2023-03-31T09:17:27.974Z,97180.88
2023-03-31T09:20:05.305Z,97180.47
2023-03-31T09:22:15.626Z,97179.19
2023-03-31T09:24:23.692Z,97178.47
2023-03-31T09:26:35.077Z,97174.78
2023-03-31T09:28:39.559Z,97172.41
2023-03-31T09:30:42.210Z,97169.25
2023-03-31T09:32:45.776Z,97160.28
2023-03-31T09:34:52.387Z,97159.34
2023-03-31T09:36:54.050Z,97160.03
2023-03-31T09:38:55.804Z,97169.25
2023-03-31T09:41:01.424Z,97169.72
2023-03-31T09:43:08.940Z,97161.38
2023-03-31T09:45:18.664Z,97156.38
2023-03-31T09:47:44.329Z,97160.13
2023-03-31T09:49:53.595Z,97156.91
2023-03-31T09:52:07.717Z,97155.47
2023-03-31T09:54:38.948Z,97160.66
2023-03-31T09:56:43.343Z,97157.28
2023-03-31T09:58:48.546Z,97152.47
2023-03-31T10:01:18.502Z,97154.59
2023-03-31T10:03:20.008Z,97148.94
2023-03-31T10:05:37.656Z,97157.19
2023-03-31T10:07:39.489Z,97165.28
2023-03-31T10:09:42.718Z,97165.19
2023-03-31T10:12:06.188Z,97156.00
2023-03-31T10:14:15.194Z,97147.78
2023-03-31T10:16:47.778Z,97147.69
2023-03-31T10:18:55.365Z,97152.75
2023-03-31T10:20:58.474Z,97148.25
2023-03-31T10:23:36.149Z,97152.94
2023-03-31T10:25:40.528Z,97152.81
2023-03-31T10:27:45.482Z,97143.25
2023-03-31T10:29:47.215Z,97147.66
2023-03-31T10:31:49.229Z,97130.81
2023-03-31T10:33:52.986Z,97145.41
2023-03-31T10:36:01.987Z,97143.78
2023-03-31T10:38:23.094Z,97164.81
2023-03-31T10:40:33.289Z,97171.75
2023-03-31T10:43:17.722Z,97187.63
2023-03-31T10:45:53.786Z,97186.78
2023-03-31T10:48:18.373Z,97176.13
2023-03-31T10:50:41.752Z,97157.03
2023-03-31T10:52:48.297Z,97153.94
2023-03-31T10:54:59.328Z,97153.47
2023-03-31T10:57:05.979Z,97151.53
2023-03-31T10:59:26.154Z,97147.66
2023-03-31T11:01:52.881Z,97139.69
2023-03-31T11:04:40.857Z,97127.41
2023-03-31T11:07:13.556Z,97122.84
2023-03-31T11:09:38.493Z,97132.06
2023-03-31T11:11:59.576Z,97129.47
2023-03-31T11:14:10.988Z,97153.25
2023-03-31T11:16:36.889Z,97138.53
2023-03-31T11:18:56.659Z,97147.72
2023-03-31T11:21:41.201Z,97158.91
2023-03-31T11:23:57.655Z,97152.59
2023-03-31T11:26:17.146Z,97146.09
2023-03-31T11:28:53.253Z,97155.81
2023-03-31T11:31:36.903Z,97152.59
2023-03-31T11:33:50.351Z,97134.50
2023-03-31T11:36:04.405Z,97141.78
2023-03-31T11:38:27.748Z,97138.53
2023-03-31T11:40:51.157Z,97141.97
2023-03-31T11:42:59.181Z,97169.00
2023-03-31T11:45:12.609Z,97165.63
2023-03-31T11:47:19.640Z,97179.56
2023-03-31T11:49:30.294Z,97146.34
2023-03-31T11:51:48.742Z,97148.78
2023-03-31T11:53:53.603Z,97144.75
2023-03-31T11:55:57.907Z,97141.50
2023-03-31T11:58:13.070Z,97129.88
2023-03-31T12:00:27.006Z,97130.81
2023-03-31T12:03:07.946Z,97123.53
2023-03-31T12:05:13.386Z,97120.94
2023-03-31T12:07:31.096Z,97117.03
2023-03-31T12:09:51.993Z,97113.81
2023-03-31T12:12:21.012Z,97080.50
2023-03-31T12:14:29.813Z,97081.94
2023-03-31T12:16:43.863Z,97093.59
2023-03-31T12:19:02.605Z,97096.97
2023-03-31T12:21:06.394Z,97099.91
2023-03-31T12:23:20.386Z,97075.31
2023-03-31T12:25:28.313Z,97105.41
2023-03-31T12:27:40.210Z,97123.97
2023-03-31T12:29:44.834Z,97121.88
2023-03-31T12:31:47.431Z,97129.94
2023-03-31T12:34:00.656Z,97137.69
2023-03-31T12:36:20.386Z,97109.25
2023-03-31T12:38:41.850Z,97066.25
2023-03-31T12:40:57.809Z,97055.56
2023-03-31T12:43:15.301Z,97069.63
2023-03-31T12:45:39.416Z,97078.34
2023-03-31T12:47:57.931Z,97067.69
2023-03-31T12:50:20.860Z,97085.94
2023-03-31T12:52:47.594Z,97105.81
2023-03-31T12:55:10.700Z,97137.81
2023-03-31T12:57:16.886Z,97153.97
2023-03-31T12:59:32.131Z,97152.38
2023-03-31T13:01:33.887Z,97151.22
2023-03-31T13:03:43.212Z,97137.00
2023-03-31T13:05:47.400Z,97147.50
2023-03-31T13:07:51.979Z,97138.28
2023-03-31T13:09:58.465Z,97120.19
2023-03-31T13:12:07.954Z,97113.38
2023-03-31T13:14:24.941Z,97102.22
2023-03-31T13:16:26.843Z,97078.63
2023-03-31T13:18:33.427Z,97068.28
2023-03-31T13:20:42.085Z,97065.34
2023-03-31T13:22:48.616Z,97062.13
2023-03-31T13:24:51.069Z,97049.84
2023-03-31T13:26:59.249Z,97047.72
2023-03-31T13:29:17.398Z,97046.41
2023-03-31T13:31:19.243Z,97057.38
2023-03-31T13:33:23.487Z,97048.66
2023-03-31T13:35:31.208Z,97046.25
2023-03-31T13:38:03.808Z,97040.75
2023-03-31T13:40:21.295Z,97031.69
2023-03-31T13:42:51.110Z,97026.22
2023-03-31T13:47:53.534Z,97037.50
2023-03-31T13:50:09.750Z,97034.44
2023-03-31T13:52:14.963Z,97038.97
2023-03-31T13:54:50.163Z,97046.78
2023-03-31T13:57:16.894Z,97040.50
2023-03-31T13:59:18.591Z,97038.59
2023-03-31T14:01:44.136Z,97042.47
2023-03-31T14:04:15.600Z,97048.13
2023-03-31T14:06:35.547Z,97044.44
2023-03-31T14:08:59.878Z,97043.13
2023-03-31T14:11:17.424Z,97036.31
2023-03-31T14:13:24.156Z,97046.53
2023-03-31T14:15:25.794Z,97046.81
2023-03-31T14:17:31.411Z,97037.25
2023-03-31T14:19:50.907Z,97042.88
2023-03-31T14:22:17.289Z,97038.31
2023-03-31T14:24:37.082Z,97017.84
2023-03-31T14:26:51.717Z,97015.91
2023-03-31T14:29:30.644Z,97003.88
2023-03-31T14:31:59.573Z,97002.53
2023-03-31T14:34:29.307Z,96999.59
2023-03-31T14:36:46.914Z,96995.50
2023-03-31T14:38:49.097Z,96985.94
2023-03-31T14:41:01.092Z,96997.41
2023-03-31T14:43:05.786Z,96991.75
2023-03-31T14:45:19.701Z,96985.88
2023-03-31T14:47:23.550Z,96993.13
2023-03-31T14:49:28.874Z,96988.91
2023-03-31T14:51:31.117Z,96996.84
2023-03-31T14:53:36.787Z,96986.66
2023-03-31T14:55:57.205Z,96987.94
2023-03-31T14:58:01.952Z,96984.00
2023-03-31T15:00:12.285Z,96983.19
2023-03-31T15:02:19.204Z,96977.69
2023-03-31T15:04:31.796Z,96983.34
2023-03-31T15:06:42.399Z,96973.94
2023-03-31T15:08:45.341Z,96967.75
2023-03-31T15:10:58.882Z,96980.03
2023-03-31T15:13:28.160Z,96983.63
2023-03-31T15:15:29.686Z,96972.72
2023-03-31T15:17:40.153Z,96973.88
2023-03-31T15:19:44.786Z,96973.53
2023-03-31T15:21:53.491Z,96963.66
2023-03-31T15:23:56.266Z,96968.50
2023-03-31T15:26:05.865Z,96969.31
2023-03-31T15:28:14.050Z,96965.75
2023-03-31T15:30:21.070Z,96979.84
2023-03-31T15:32:28.875Z,96982.94
2023-03-31T15:34:34.621Z,96974.34
2023-03-31T15:36:36.152Z,96983.75
2023-03-31T15:38:38.095Z,96986.84
2023-03-31T15:40:43.087Z,96985.25
2023-03-31T15:43:01.476Z,96973.75
2023-03-31T15:45:33.219Z,96972.78
2023-03-31T15:47:38.714Z,96967.28
2023-03-31T15:49:53.542Z,96960.84
2023-03-31T15:52:00.520Z,96964.72
2023-03-31T15:54:02.126Z,96961.97
2023-03-31T15:56:05.349Z,96959.41
2023-03-31T15:58:15.815Z,96950.69
2023-03-31T16:00:39.295Z,96952.16
2023-03-31T16:02:46.379Z,96952.50
2023-03-31T16:04:51.241Z,96962.38
2023-03-31T16:06:59.121Z,96946.19
2023-03-31T16:09:15.348Z,96946.66
2023-03-31T16:11:28.171Z,96946.19
2023-03-31T16:13:32.045Z,96948.97
2023-03-31T16:15:44.713Z,96945.72
2023-03-31T16:17:53.422Z,96956.28
2023-03-31T16:20:01.672Z,96958.56
2023-03-31T16:22:04.797Z,96954.19
2023-03-31T16:24:07.169Z,96959.22
2023-03-31T16:26:08.889Z,96968.31
2023-03-31T16:28:16.587Z,96973.31
2023-03-31T16:30:21.866Z,96967.03
2023-03-31T16:32:24.715Z,96958.28
2023-03-31T16:34:31.505Z,96965.25
2023-03-31T16:36:33.581Z,96962.19
2023-03-31T16:38:35.196Z,96969.63
2023-03-31T16:40:44.918Z,96966.72
2023-03-31T16:42:46.602Z,96966.25
2023-03-31T16:44:59.892Z,96969.34
2023-03-31T16:47:15.042Z,96967.72
2023-03-31T16:49:19.261Z,96970.38
2023-03-31T16:51:21.488Z,96974.72
2023-03-31T16:53:26.494Z,96985.25
2023-03-31T16:55:29.678Z,96983.97
2023-03-31T16:57:34.690Z,96982.22
2023-03-31T16:59:38.926Z,96987.09
2023-03-31T17:01:41.212Z,96988.22
2023-03-31T17:03:43.183Z,96988.91
2023-03-31T17:05:47.667Z,97004.94
2023-03-31T17:07:49.352Z,96990.22
2023-03-31T17:09:51.457Z,96998.00
2023-03-31T17:11:53.076Z,97000.59
2023-03-31T17:13:59.336Z,96990.25
2023-03-31T17:16:16.934Z,97004.19
2023-03-31T17:18:23.526Z,96995.47
2023-03-31T17:20:26.358Z,97000.16
2023-03-31T17:22:27.974Z,96991.78
2023-03-31T17:24:29.804Z,96992.44
2023-03-31T17:26:31.787Z,96989.97
2023-03-31T17:28:33.813Z,96996.94
2023-03-31T17:30:35.568Z,96993.72
2023-03-31T17:32:38.185Z,97006.84
2023-03-31T17:34:39.761Z,97013.69
2023-03-31T17:36:44.946Z,97007.34
2023-03-31T17:38:47.192Z,97018.53
2023-03-31T17:40:48.799Z,97021.44
2023-03-31T17:42:50.713Z,97019.66
2023-03-31T17:44:53.308Z,97010.94
2023-03-31T17:46:54.757Z,97017.09
2023-03-31T17:48:58.378Z,97015.31
2023-03-31T17:51:23.667Z,97011.59
2023-03-31T17:53:25.217Z,97010.28
2023-03-31T17:55:27.090Z,97011.75
2023-03-31T17:57:28.759Z,97014.84
2023-03-31T17:59:30.529Z,97018.72
2023-03-31T18:01:32.462Z,97019.34
2023-03-31T18:03:34.927Z,97016.47
2023-03-31T18:05:37.571Z,97026.16
2023-03-31T18:07:39.680Z,97026.81
2023-03-31T18:09:41.161Z,97026.63
2023-03-31T18:11:42.953Z,97027.31
2023-03-31T18:13:44.808Z,97025.19
2023-03-31T18:15:52.798Z,97023.91
2023-03-31T18:17:54.799Z,97027.28
2023-03-31T18:19:56.589Z,97027.94
2023-03-31T18:21:58.137Z,97028.56
2023-03-31T18:23:59.685Z,97030.84
2023-03-31T18:26:01.698Z,97034.22
2023-03-31T18:28:03.805Z,97023.91
2023-03-31T18:30:08.487Z,97024.53
2023-03-31T18:32:10.287Z,97027.91
2023-03-31T18:34:13.619Z,97027.75
2023-03-31T18:36:18.620Z,97028.06
2023-03-31T18:38:20.273Z,97020.00
2023-03-31T18:40:22.336Z,97027.75
2023-03-31T18:42:25.665Z,97031.63
2023-03-31T18:44:27.270Z,97031.47
2023-03-31T18:46:29.027Z,97037.59
2023-03-31T18:48:30.698Z,97030.81
2023-03-31T18:50:32.773Z,97040.50
2023-03-31T18:52:35.956Z,97037.56
2023-03-31T18:54:37.588Z,97036.56
2023-03-31T18:56:39.049Z,97041.53
2023-03-31T18:58:44.034Z,97052.38
2023-03-31T19:00:45.976Z,97046.69
2023-03-31T19:02:48.160Z,97055.25
2023-03-31T19:04:50.279Z,97057.53
2023-03-31T19:06:53.320Z,97052.66
2023-03-31T19:08:57.692Z,97065.09
2023-03-31T19:11:08.122Z,97061.84
2023-03-31T19:13:17.860Z,97058.28
2023-03-31T19:15:20.812Z,97062.78
2023-03-31T19:17:22.571Z,97060.03
2023-03-31T19:19:24.362Z,97064.75
2023-03-31T19:21:27.146Z,97059.88
2023-03-31T19:23:30.384Z,97058.56
2023-03-31T19:25:32.239Z,97055.34
2023-03-31T19:27:34.292Z,97066.13
2023-03-31T19:29:35.972Z,97055.16
2023-03-31T19:31:41.559Z,97053.84
2023-03-31T19:33:43.182Z,97068.69
2023-03-31T19:35:47.493Z,97066.28
2023-03-31T19:37:49.893Z,97061.13
2023-03-31T19:39:52.074Z,97062.22
2023-03-31T19:41:53.613Z,97068.34
2023-03-31T19:43:55.537Z,97072.22
2023-03-31T19:45:58.000Z,97062.84
2023-03-31T19:47:59.606Z,97070.59
2023-03-31T19:50:01.125Z,97076.91
2023-03-31T19:52:03.181Z,97074.44
2023-03-31T19:54:04.803Z,97080.75
2023-03-31T19:56:17.313Z,97073.16
2023-03-31T19:58:18.968Z,97078.63
2023-03-31T20:00:20.946Z,97074.78
2023-03-31T20:02:23.629Z,97075.09
2023-03-31T20:04:25.566Z,97078.63
2023-03-31T20:06:29.500Z,97078.97
2023-03-31T20:08:31.580Z,97080.06
2023-03-31T20:10:33.241Z,97080.88
2023-03-31T20:12:34.786Z,97082.81
2023-03-31T20:14:36.482Z,97076.84
2023-03-31T20:16:38.113Z,97084.91
2023-03-31T20:18:40.840Z,97093.44
2023-03-31T20:20:42.977Z,97092.94
2023-03-31T20:22:44.632Z,97092.13
2023-03-31T20:24:46.330Z,97093.28
2023-03-31T20:26:47.883Z,97091.31
2023-03-31T20:28:49.805Z,97096.81
2023-03-31T20:30:51.854Z,97097.13
2023-03-31T20:32:53.589Z,97099.38
2023-03-31T20:34:55.158Z,97099.19
2023-03-31T20:36:57.127Z,97092.88
2023-03-31T20:39:00.211Z,97094.84
2023-03-31T20:41:04.933Z,97095.94
2023-03-31T20:43:06.680Z,97095.13
2023-03-31T20:45:08.971Z,97102.53
2023-03-31T20:47:10.525Z,97108.34
2023-03-31T20:49:12.470Z,97098.81
2023-03-31T20:51:17.133Z,97102.66
2023-03-31T20:53:18.940Z,97103.81
2023-03-31T20:55:20.532Z,97106.06
2023-03-31T20:57:22.195Z,97101.69
2023-03-31T20:59:24.131Z,97111.03
2023-03-31T21:01:33.873Z,97103.13
2023-03-31T21:03:35.788Z,97109.22
2023-03-31T21:05:47.914Z,97100.50
2023-03-31T21:07:49.440Z,97104.34
2023-03-31T21:09:51.287Z,97099.19
2023-03-31T21:11:52.844Z,97106.13
2023-03-31T21:13:54.493Z,97100.44
2023-03-31T21:15:58.683Z,97107.88
2023-03-31T21:18:00.581Z,97110.09
2023-03-31T21:20:03.522Z,97113.97
2023-03-31T21:22:05.294Z,97108.28
2023-03-31T21:24:08.101Z,97112.16
2023-03-31T21:26:13.280Z,97104.22
2023-03-31T21:28:22.113Z,97108.38
2023-03-31T21:30:26.908Z,97117.75
2023-03-31T21:32:29.825Z,97105.47
2023-03-31T21:34:31.571Z,97103.00
2023-03-31T21:36:35.803Z,97117.03
2023-03-31T21:38:37.731Z,97103.13
2023-03-31T21:40:39.295Z,97108.63
2023-03-31T21:42:40.865Z,97103.75
2023-03-31T21:44:42.521Z,97104.88
2023-03-31T21:46:47.974Z,97108.72
2023-03-31T21:48:50.265Z,97112.59
2023-03-31T21:50:54.880Z,97105.28
2023-03-31T21:52:57.242Z,97104.47
2023-03-31T21:54:58.810Z,97100.44
2023-03-31T21:57:00.285Z,97103.81
2023-03-31T21:59:04.271Z,97101.69
2023-03-31T22:01:06.384Z,97107.44
2023-03-31T22:03:25.708Z,97103.09
2023-03-31T22:05:31.414Z,97103.09
2023-03-31T22:07:33.201Z,97104.22
2023-03-31T22:09:34.776Z,97104.53
2023-03-31T22:11:36.520Z,97115.78
2023-03-31T22:13:38.916Z,97107.06
2023-03-31T22:15:42.195Z,97101.59
2023-03-31T22:17:45.664Z,97100.28
2023-03-31T22:19:48.125Z,97104.94
2023-03-31T22:21:50.475Z,97109.31
2023-03-31T22:23:53.532Z,97107.69
2023-03-31T22:25:55.460Z,97109.09
2023-03-31T22:27:57.043Z,97110.22
2023-03-31T22:29:59.225Z,97110.72
2023-03-31T22:32:01.061Z,97114.28
2023-03-31T22:34:08.208Z,97111.84
2023-03-31T22:36:09.858Z,97108.31
2023-03-31T22:38:14.483Z,97113.47
2023-03-31T22:40:16.081Z,97106.88
2023-03-31T22:42:17.613Z,97115.72
2023-03-31T22:44:19.352Z,97105.56
2023-03-31T22:46:21.166Z,97104.75
2023-03-31T22:48:22.883Z,97107.78
2023-03-31T22:50:24.630Z,97110.03
2023-03-31T22:52:26.286Z,97111.16
2023-03-31T22:54:27.788Z,97104.88
2023-03-31T22:56:31.852Z,97108.22
2023-03-31T22:58:33.630Z,97105.47
2023-03-31T23:00:35.679Z,97105.16
2023-03-31T23:02:37.330Z,97115.94
2023-03-31T23:04:39.150Z,97104.16
2023-03-31T23:06:40.563Z,97109.63
2023-03-31T23:08:43.647Z,97114.28
2023-03-31T23:10:59.297Z,97116.53
2023-03-31T23:13:01.244Z,97113.31
2023-03-31T23:15:03.788Z,97108.13
2023-03-31T23:17:05.568Z,97117.75
2023-03-31T23:19:07.349Z,97104.38
2023-03-31T23:21:12.859Z,97110.66
2023-03-31T23:23:14.548Z,97114.22
2023-03-31T23:25:16.257Z,97112.59
2023-03-31T23:27:18.868Z,97111.28
2023-03-31T23:29:20.467Z,97109.66
2023-03-31T23:31:29.063Z,97113.81
2023-03-31T23:33:30.597Z,97109.47
2023-03-31T23:35:32.418Z,97111.06
2023-03-31T23:37:34.039Z,97102.34
2023-03-31T23:39:35.800Z,97106.22
2023-03-31T23:41:37.377Z,97101.03
2023-03-31T23:43:39.755Z,97108.44
2023-03-31T23:45:41.669Z,97098.31
2023-03-31T23:47:43.977Z,97104.38
2023-03-31T23:49:45.944Z,97101.66
2023-03-31T23:51:48.940Z,97103.59
2023-03-31T23:53:50.662Z,97098.72
2023-03-31T23:55:54.168Z,97094.84
2023-03-31T23:57:57.562Z,97092.94
2023-03-31T23:59:59.066Z,97094.84
